Humidity-temperature Sensor

Selected Measurement Type: Air Temperature

 
Air Temperature [°C]     6 entries per hour
Showing data from 5/19/2024 (00:00:00 Z) to 5/12/2024 (00:01:00 Z)
Previous Next [ Day | 3-Days | 7-Days ]
First Last
Prev [ Day | 3-Days | 7-Days ] Next
First Last

Start Time:     :
End Time:     :     
Time (in GMT) :00 :50 :40 :30 :20 :10
Previous Next [ Day | 3-Days | 7-Days ]
First Last
Prev [ Day | 3-Days | 7-Days ] Next
First Last


123 => good data
MM => data is determined as missing
-- => data not received/configured
Back to Top Back to Top
5/19/2024 00:00 to 23:10 25.73 25.61 25.71 25.74 25.63 25.64
5/18/2024 23:00 to 22:10 25.70 25.69 25.71 25.69 25.69 25.61
5/18/2024 22:00 to 21:10 25.63 25.61 25.63 25.57 25.70 25.67
5/18/2024 21:00 to 20:10 25.52 25.61 25.68 25.65 25.75 25.77
5/18/2024 20:00 to 19:10 25.66 25.72 25.78 25.70 25.57 25.72
5/18/2024 19:00 to 18:10 25.71 25.77 25.68 25.66 25.74 25.70
5/18/2024 18:00 to 17:10 25.73 25.75 25.71 25.64 25.71 25.58
5/18/2024 17:00 to 16:10 25.66 25.68 25.83 25.92 25.90 25.93
5/18/2024 16:00 to 15:10 25.86 25.86 25.64 25.87 25.76 25.69
5/18/2024 15:00 to 14:10 25.57 25.63 25.77 25.62 25.65 25.58
5/18/2024 14:00 to 13:10 25.68 25.66 25.55 25.50 25.51 25.62
5/18/2024 13:00 to 12:10 25.41 25.45 25.39 25.40 25.36 25.32
5/18/2024 12:00 to 11:10 25.43 25.41 25.42 25.43 25.41 25.23
5/18/2024 11:00 to 10:10 25.35 25.27 25.23 25.23 25.19 25.08
5/18/2024 10:00 to 9:10 25.01 25.43 25.37 25.38 25.36 25.37
5/18/2024 09:00 to 8:10 25.46 25.38 25.31 25.51 25.43 25.47
5/18/2024 08:00 to 7:10 25.51 25.44 25.47 25.47 25.44 25.44
5/18/2024 07:00 to 6:10 25.43 25.50 25.42 25.47 25.44 25.49
5/18/2024 06:00 to 5:10 25.48 25.41 25.46 25.46 25.55 25.53
5/18/2024 05:00 to 4:10 25.54 25.52 25.59 25.54 25.59 25.68
5/18/2024 04:00 to 3:10 25.56 25.55 25.62 25.59 25.53 25.65
5/18/2024 03:00 to 2:10 25.66 25.63 25.76 25.58 25.62 25.65
5/18/2024 02:00 to 1:10 25.68 25.68 25.61 25.62 25.64 25.70
5/18/2024 01:00 to 0:10 25.66 25.72 25.88 25.84 25.80 25.86
5/18/2024 00:00 to 23:10 25.80 25.82 25.77 25.84 25.82 25.82
5/17/2024 23:00 to 22:10 25.74 25.83 25.81 25.81 25.79 25.76
5/17/2024 22:00 to 21:10 25.76 25.81 25.77 25.82 25.78 25.84
5/17/2024 21:00 to 20:10 25.82 25.79 25.73 25.75 25.72 25.80
5/17/2024 20:00 to 19:10 25.74 25.75 25.81 25.69 25.74 25.72
5/17/2024 19:00 to 18:10 25.82 25.74 25.74 25.70 25.74 25.80
5/17/2024 18:00 to 17:10 25.79 25.71 25.72 25.77 25.76 25.78
5/17/2024 17:00 to 16:10 25.73 25.81 25.75 25.78 25.77 25.83
5/17/2024 16:00 to 15:10 25.83 25.82 25.82 25.77 25.63 25.81
5/17/2024 15:00 to 14:10 25.71 25.74 25.73 25.72 25.73 25.70
5/17/2024 14:00 to 13:10 25.53 25.43 25.47 25.53 25.38 25.51
5/17/2024 13:00 to 12:10 25.51 25.41 25.47 25.38 25.31 25.35
5/17/2024 12:00 to 11:10 25.41 25.38 25.46 25.35 25.42 25.38
5/17/2024 11:00 to 10:10 25.35 25.32 25.31 25.45 25.32 25.37
5/17/2024 10:00 to 9:10 25.40 25.38 25.40 25.38 25.38 25.36
5/17/2024 09:00 to 8:10 25.39 25.30 25.45 25.45 25.47 25.48
5/17/2024 08:00 to 7:10 25.49 25.43 25.47 25.42 25.45 25.47
5/17/2024 07:00 to 6:10 25.49 25.50 25.45 25.45 25.53 25.59
5/17/2024 06:00 to 5:10 25.58 25.59 25.58 25.63 25.62 25.67
5/17/2024 05:00 to 4:10 25.61 25.64 25.65 25.67 25.60 25.69
5/17/2024 04:00 to 3:10 25.67 25.64 25.65 25.61 25.58 25.62
5/17/2024 03:00 to 2:10 25.67 25.61 25.58 25.68 25.64 25.58
5/17/2024 02:00 to 1:10 25.68 25.71 25.68 25.65 25.65 25.71
5/17/2024 01:00 to 0:10 25.73 25.71 25.82 25.81 25.82 25.81
5/17/2024 00:00 to 23:10 25.85 25.82 25.78 25.82 25.74 25.84
5/16/2024 23:00 to 22:10 25.83 25.78 25.86 25.83 25.76 25.75
5/16/2024 22:00 to 21:10 25.77 25.74 25.78 25.70 25.71 25.68
5/16/2024 21:00 to 20:10 25.73 25.66 25.67 25.65 25.70 25.71
5/16/2024 20:00 to 19:10 25.78 25.66 25.69 25.67 25.57 25.65
5/16/2024 19:00 to 18:10 25.61 25.64 25.63 25.59 25.53 25.49
5/16/2024 18:00 to 17:10 25.56 25.54 25.61 25.55 25.67 25.56
5/16/2024 17:00 to 16:10 25.58 25.54 25.62 25.54 25.57 25.57
5/16/2024 16:00 to 15:10 25.61 25.57 25.62 25.64 25.66 25.58
5/16/2024 15:00 to 14:10 25.62 25.62 25.52 25.58 25.56 25.48
5/16/2024 14:00 to 13:10 25.48 25.38 25.29 25.21 25.22 25.18
5/16/2024 13:00 to 12:10 25.17 25.26 25.20 25.23 25.17 25.17
5/16/2024 12:00 to 11:10 25.29 25.22 25.20 25.25 25.27 25.14
5/16/2024 11:00 to 10:10 25.26 25.22 25.17 25.23 25.28 25.21
5/16/2024 10:00 to 9:10 25.29 25.17 25.21 25.17 25.23 25.25
5/16/2024 09:00 to 8:10 25.25 25.24 25.27 25.23 25.32 25.32
5/16/2024 08:00 to 7:10 25.28 25.27 25.34 25.37 25.36 25.34
5/16/2024 07:00 to 6:10 25.38 25.40 25.43 25.40 25.44 25.47
5/16/2024 06:00 to 5:10 25.44 25.49 25.48 25.52 25.57 25.52
5/16/2024 05:00 to 4:10 25.47 25.59 25.62 25.58 25.64 25.55
5/16/2024 04:00 to 3:10 25.64 25.61 25.58 25.67 25.60 25.72
5/16/2024 03:00 to 2:10 25.73 25.71 25.71 25.77 25.72 25.72
5/16/2024 02:00 to 1:10 25.75 25.79 25.79 25.74 25.76 25.75
5/16/2024 01:00 to 0:10 25.91 25.80 25.79 25.86 25.86 25.86
5/16/2024 00:00 to 23:10 25.88 25.85 25.84 25.82 25.89 25.86
5/15/2024 23:00 to 22:10 25.86 25.90 25.79 25.82 25.70 25.75
5/15/2024 22:00 to 21:10 25.85 25.79 25.71 25.69 25.74 25.80
5/15/2024 21:00 to 20:10 25.69 25.71 25.68 25.70 25.70 25.65
5/15/2024 20:00 to 19:10 25.77 25.74 25.66 25.70 25.73 25.68
5/15/2024 19:00 to 18:10 25.69 25.65 25.64 25.60 25.53 25.63
5/15/2024 18:00 to 17:10 25.62 25.58 25.61 25.64 25.64 25.66
5/15/2024 17:00 to 16:10 25.53 25.53 25.54 25.62 25.62 25.61
5/15/2024 16:00 to 15:10 25.68 25.64 25.62 25.66 25.64 25.66
5/15/2024 15:00 to 14:10 25.61 25.62 25.56 25.61 25.69 25.63
5/15/2024 14:00 to 13:10 25.53 25.46 25.45 25.36 25.27 25.28
5/15/2024 13:00 to 12:10 25.25 25.27 25.22 25.25 25.31 25.27
5/15/2024 12:00 to 11:10 25.26 25.25 25.25 25.28 25.22 25.21
5/15/2024 11:00 to 10:10 25.21 25.26 25.28 25.30 25.25 25.26
5/15/2024 10:00 to 9:10 25.28 25.34 25.29 25.33 25.25 25.30
5/15/2024 09:00 to 8:10 25.30 25.35 25.31 25.30 25.29 25.32
5/15/2024 08:00 to 7:10 25.33 25.38 25.37 25.39 25.41 25.44
5/15/2024 07:00 to 6:10 25.40 25.40 25.41 25.40 25.43 25.47
5/15/2024 06:00 to 5:10 25.47 25.45 25.50 25.51 25.49 25.51
5/15/2024 05:00 to 4:10 25.49 25.52 25.51 25.55 25.58 25.56
5/15/2024 04:00 to 3:10 25.58 25.60 25.61 25.62 25.60 25.59
5/15/2024 03:00 to 2:10 25.61 25.57 25.60 25.61 25.59 25.50
5/15/2024 02:00 to 1:10 25.67 25.59 25.57 25.50 25.62 25.67
5/15/2024 01:00 to 0:10 25.69 25.71 25.67 25.73 25.74 25.67
5/15/2024 00:00 to 23:10 25.70 25.69 25.70 25.71 25.69 25.70
5/14/2024 23:00 to 22:10 25.68 25.71 25.65 25.66 25.65 25.60
5/14/2024 22:00 to 21:10 25.65 25.62 25.60 25.59 25.55 25.59
5/14/2024 21:00 to 20:10 25.63 25.55 25.49 25.50 25.48 25.47
5/14/2024 20:00 to 19:10 25.48 25.47 25.46 25.43 25.39 25.46
5/14/2024 19:00 to 18:10 25.43 25.35 25.48 25.38 25.41 25.37
5/14/2024 18:00 to 17:10 25.39 25.38 25.39 25.45 25.39 25.44
5/14/2024 17:00 to 16:10 25.41 25.37 25.43 25.42 25.44 25.39
5/14/2024 16:00 to 15:10 25.43 25.31 25.41 25.40 25.35 25.46
5/14/2024 15:00 to 14:10 25.40 25.48 25.45 25.38 25.32 25.30
5/14/2024 14:00 to 13:10 25.33 25.24 25.17 25.10 25.03 25.05
5/14/2024 13:00 to 12:10 24.99 24.99 24.99 24.98 25.01 25.08
5/14/2024 12:00 to 11:10 25.07 25.11 25.06 25.06 25.12 25.09
5/14/2024 11:00 to 10:10 25.08 25.01 25.04 25.05 25.08 25.06
5/14/2024 10:00 to 9:10 25.04 25.10 25.09 25.01 25.06 25.05
5/14/2024 09:00 to 8:10 25.05 25.06 25.10 25.08 25.12 25.12
5/14/2024 08:00 to 7:10 -- -- -- -- -- --
5/14/2024 07:00 to 6:10 25.14 25.24 25.28 25.20 25.20 25.17
5/14/2024 06:00 to 5:10 25.24 25.20 25.19 25.19 25.25 25.22
5/14/2024 05:00 to 4:10 25.21 25.17 25.18 25.25 25.19 25.24
5/14/2024 04:00 to 3:10 25.20 25.17 25.28 25.25 25.26 25.29
5/14/2024 03:00 to 2:10 25.31 25.30 25.29 25.25 25.32 25.37
5/14/2024 02:00 to 1:10 25.28 25.28 25.38 25.32 25.38 25.37
5/14/2024 01:00 to 0:10 25.42 25.45 25.51 25.53 25.60 25.65
5/14/2024 00:00 to 23:10 25.54 25.58 25.48 25.50 25.56 25.44
5/13/2024 23:00 to 22:10 25.49 25.43 25.40 25.48 25.34 25.33
5/13/2024 22:00 to 21:10 25.33 25.33 25.43 25.37 25.36 25.33
5/13/2024 21:00 to 20:10 25.40 25.39 25.44 25.34 25.30 25.24
5/13/2024 20:00 to 19:10 25.23 25.19 25.23 25.20 25.19 25.24
5/13/2024 19:00 to 18:10 25.25 25.31 25.16 25.21 25.27 25.22
5/13/2024 18:00 to 17:10 25.33 25.36 25.44 25.43 25.43 25.51
5/13/2024 17:00 to 16:10 25.56 25.52 25.60 25.68 25.68 25.64
5/13/2024 16:00 to 15:10 25.54 25.55 25.45 25.42 25.38 25.40
5/13/2024 15:00 to 14:10 25.40 25.37 25.32 25.24 25.15 25.07
5/13/2024 14:00 to 13:10 25.01 24.93 24.81 24.72 24.71 24.71
5/13/2024 13:00 to 12:10 24.69 24.72 24.73 24.73 24.75 24.76
5/13/2024 12:00 to 11:10 24.76 24.78 24.80 24.78 24.75 24.70
5/13/2024 11:00 to 10:10 24.73 24.71 24.70 24.62 24.69 24.67
5/13/2024 10:00 to 9:10 24.70 24.74 24.74 24.78 24.81 24.84
5/13/2024 09:00 to 8:10 24.84 24.85 24.84 24.83 24.79 24.85
5/13/2024 08:00 to 7:10 24.85 24.87 24.88 24.85 24.78 24.76
5/13/2024 07:00 to 6:10 24.87 24.88 24.90 24.92 24.94 24.96
5/13/2024 06:00 to 5:10 24.96 24.93 25.01 25.01 24.96 24.99
5/13/2024 05:00 to 4:10 25.02 24.99 24.95 24.93 24.94 24.95
5/13/2024 04:00 to 3:10 24.99 25.03 25.01 25.02 25.02 25.03
5/13/2024 03:00 to 2:10 25.05 25.05 25.08 25.06 25.07 25.13
5/13/2024 02:00 to 1:10 25.12 25.12 25.16 25.22 25.21 25.26
5/13/2024 01:00 to 0:10 25.31 25.35 25.39 25.47 25.45 25.48
5/13/2024 00:00 to 23:10 25.51 25.48 25.52 25.52 25.50 25.50
5/12/2024 23:00 to 22:10 25.49 25.53 25.52 25.46 25.45 25.38
5/12/2024 22:00 to 21:10 25.39 25.35 25.43 25.35 25.33 25.35
5/12/2024 21:00 to 20:10 25.32 25.31 25.32 25.34 25.30 25.27
5/12/2024 20:00 to 19:10 25.28 25.33 25.26 25.26 25.24 25.26
5/12/2024 19:00 to 18:10 25.21 25.24 25.23 25.20 25.22 25.21
5/12/2024 18:00 to 17:10 25.30 25.30 25.30 25.36 25.37 25.36
5/12/2024 17:00 to 16:10 25.31 25.30 25.26 25.28 25.32 25.32
5/12/2024 16:00 to 15:10 25.28 25.03 24.98 25.05 25.15 25.15
5/12/2024 15:00 to 14:10 25.13 25.12 25.10 25.06 25.04 24.98
5/12/2024 14:00 to 13:10 24.91 24.86 24.76 24.70 24.68 24.69
5/12/2024 13:00 to 12:10 24.70 24.69 24.69 24.71 24.73 24.74
5/12/2024 12:00 to 11:10 24.75 24.76 24.77 24.79 24.78 24.77
5/12/2024 11:00 to 10:10 24.76 24.77 24.72 24.70 24.67 24.66
5/12/2024 10:00 to 9:10 24.67 24.66 24.66 24.64 24.65 24.66
5/12/2024 09:00 to 8:10 24.71 24.73 24.72 24.70 24.74 24.73
5/12/2024 08:00 to 7:10 24.73 24.75 24.76 24.78 24.78 24.81
5/12/2024 07:00 to 6:10 24.82 24.82 24.82 24.85 24.84 24.84
5/12/2024 06:00 to 5:10 24.84 24.84 24.85 24.86 24.88 24.89
5/12/2024 05:00 to 4:10 24.90 24.91 24.93 24.93 24.95 24.94
5/12/2024 04:00 to 3:10 24.96 24.96 24.96 24.95 24.97 24.98
5/12/2024 03:00 to 2:10 24.97 24.96 24.98 24.99 25.05 25.06
5/12/2024 02:00 to 1:10 25.11 25.14 25.16 25.16 25.21 25.24
5/12/2024 01:00 to 0:10 25.27 25.27 25.40 25.44 25.41 25.44